sensor_id;sensor_type;location;lat;lon;timestamp;P1;durP1;ratioP1;P2;durP2;ratioP2
29414;SDS011;20303;48.302;11.914;2023-04-01T00:04:57;0.82;;;0.60;;
29414;SDS011;20303;48.302;11.914;2023-04-01T00:14:58;0.98;;;0.70;;
29414;SDS011;20303;48.302;11.914;2023-04-01T00:25:00;1.05;;;0.70;;
29414;SDS011;20303;48.302;11.914;2023-04-01T00:35:01;0.77;;;0.70;;
29414;SDS011;20303;48.302;11.914;2023-04-01T00:55:45;1.20;;;0.68;;
29414;SDS011;20303;48.302;11.914;2023-04-01T01:06:11;1.23;;;0.70;;
29414;SDS011;20303;48.302;11.914;2023-04-01T01:16:29;0.80;;;0.60;;
29414;SDS011;20303;48.302;11.914;2023-04-01T01:36:40;0.80;;;0.60;;
29414;SDS011;20303;48.302;11.914;2023-04-01T01:46:45;221.30;;;14.13;;
29414;SDS011;20303;48.302;11.914;2023-04-01T01:56:46;246.93;;;16.60;;
29414;SDS011;20303;48.302;11.914;2023-04-01T02:06:58;104.70;;;10.02;;
29414;SDS011;20303;48.302;11.914;2023-04-01T02:17:04;51.70;;;5.80;;
29414;SDS011;20303;48.302;11.914;2023-04-01T02:27:10;40.03;;;4.70;;
29414;SDS011;20303;48.302;11.914;2023-04-01T02:37:12;27.13;;;4.20;;
29414;SDS011;20303;48.302;11.914;2023-04-01T02:47:13;19.10;;;2.50;;
29414;SDS011;20303;48.302;11.914;2023-04-01T02:57:14;19.60;;;2.78;;
29414;SDS011;20303;48.302;11.914;2023-04-01T03:07:15;8.65;;;1.95;;
29414;SDS011;20303;48.302;11.914;2023-04-01T03:17:16;10.18;;;1.70;;
29414;SDS011;20303;48.302;11.914;2023-04-01T03:27:17;9.45;;;1.88;;
29414;SDS011;20303;48.302;11.914;2023-04-01T03:37:18;9.65;;;1.45;;
29414;SDS011;20303;48.302;11.914;2023-04-01T03:47:19;5.65;;;1.48;;
29414;SDS011;20303;48.302;11.914;2023-04-01T03:57:20;8.30;;;1.60;;
29414;SDS011;20303;48.302;11.914;2023-04-01T04:07:21;5.00;;;1.25;;
29414;SDS011;20303;48.302;11.914;2023-04-01T04:17:22;6.20;;;1.40;;
29414;SDS011;20303;48.302;11.914;2023-04-01T04:27:23;5.45;;;1.10;;
29414;SDS011;20303;48.302;11.914;2023-04-01T04:37:24;6.05;;;1.20;;
29414;SDS011;20303;48.302;11.914;2023-04-01T04:47:25;5.10;;;1.23;;
29414;SDS011;20303;48.302;11.914;2023-04-01T04:57:26;2.53;;;0.85;;
29414;SDS011;20303;48.302;11.914;2023-04-01T05:07:28;2.17;;;0.73;;
29414;SDS011;20303;48.302;11.914;2023-04-01T05:17:29;10.88;;;1.40;;
29414;SDS011;20303;48.302;11.914;2023-04-01T05:27:30;14.23;;;1.58;;
29414;SDS011;20303;48.302;11.914;2023-04-01T05:37:33;14.85;;;1.50;;
29414;SDS011;20303;48.302;11.914;2023-04-01T05:47:35;8.18;;;1.60;;
29414;SDS011;20303;48.302;11.914;2023-04-01T05:57:36;6.00;;;1.33;;
29414;SDS011;20303;48.302;11.914;2023-04-01T06:07:37;7.28;;;0.95;;
29414;SDS011;20303;48.302;11.914;2023-04-01T06:17:48;5.78;;;1.08;;
29414;SDS011;20303;48.302;11.914;2023-04-01T06:38:43;4.70;;;0.93;;
29414;SDS011;20303;48.302;11.914;2023-04-01T06:49:04;8.07;;;1.40;;
29414;SDS011;20303;48.302;11.914;2023-04-01T06:59:27;4.38;;;1.27;;
29414;SDS011;20303;48.302;11.914;2023-04-01T07:09:35;7.30;;;1.20;;
29414;SDS011;20303;48.302;11.914;2023-04-01T07:19:59;8.65;;;1.23;;
29414;SDS011;20303;48.302;11.914;2023-04-01T07:30:19;7.40;;;1.30;;
29414;SDS011;20303;48.302;11.914;2023-04-01T07:40:25;7.65;;;0.98;;
29414;SDS011;20303;48.302;11.914;2023-04-01T07:50:28;6.13;;;0.93;;
29414;SDS011;20303;48.302;11.914;2023-04-01T08:00:42;15.60;;;2.00;;
29414;SDS011;20303;48.302;11.914;2023-04-01T08:10:52;41.30;;;3.47;;
29414;SDS011;20303;48.302;11.914;2023-04-01T08:21:15;38.03;;;3.55;;
29414;SDS011;20303;48.302;11.914;2023-04-01T08:31:26;26.88;;;3.20;;
29414;SDS011;20303;48.302;11.914;2023-04-01T09:02:37;23.30;;;2.75;;
29414;SDS011;20303;48.302;11.914;2023-04-01T09:23:35;17.40;;;2.45;;
29414;SDS011;20303;48.302;11.914;2023-04-01T09:54:42;36.75;;;3.83;;
29414;SDS011;20303;48.302;11.914;2023-04-01T10:15:25;43.30;;;3.65;;
29414;SDS011;20303;48.302;11.914;2023-04-01T11:18:06;12.25;;;1.40;;
29414;SDS011;20303;48.302;11.914;2023-04-01T11:28:30;7.25;;;1.50;;
29414;SDS011;20303;48.302;11.914;2023-04-01T12:19:36;6.10;;;2.13;;
29414;SDS011;20303;48.302;11.914;2023-04-01T12:40:10;6.95;;;1.95;;
29414;SDS011;20303;48.302;11.914;2023-04-01T12:50:23;3.63;;;1.88;;
29414;SDS011;20303;48.302;11.914;2023-04-01T13:10:58;3.03;;;1.45;;
29414;SDS011;20303;48.302;11.914;2023-04-01T13:21:04;3.35;;;1.60;;
29414;SDS011;20303;48.302;11.914;2023-04-01T13:31:27;2.95;;;1.50;;
29414;SDS011;20303;48.302;11.914;2023-04-01T13:42:08;3.42;;;1.48;;
29414;SDS011;20303;48.302;11.914;2023-04-01T13:52:33;2.40;;;1.58;;
29414;SDS011;20303;48.302;11.914;2023-04-01T14:03:07;2.33;;;1.25;;
29414;SDS011;20303;48.302;11.914;2023-04-01T14:34:55;5.47;;;1.75;;
29414;SDS011;20303;48.302;11.914;2023-04-01T14:55:34;11.50;;;2.10;;
29414;SDS011;20303;48.302;11.914;2023-04-01T15:16:02;12.18;;;2.42;;
29414;SDS011;20303;48.302;11.914;2023-04-01T15:26:27;8.30;;;2.30;;
29414;SDS011;20303;48.302;11.914;2023-04-01T15:36:39;7.95;;;2.30;;
29414;SDS011;20303;48.302;11.914;2023-04-01T15:46:44;6.28;;;2.00;;
29414;SDS011;20303;48.302;11.914;2023-04-01T15:56:53;6.60;;;2.10;;
29414;SDS011;20303;48.302;11.914;2023-04-01T16:38:31;4.80;;;2.00;;
29414;SDS011;20303;48.302;11.914;2023-04-01T16:48:52;3.55;;;1.80;;
29414;SDS011;20303;48.302;11.914;2023-04-01T16:59:06;5.53;;;1.92;;
29414;SDS011;20303;48.302;11.914;2023-04-01T17:09:23;4.40;;;1.60;;
29414;SDS011;20303;48.302;11.914;2023-04-01T18:22:28;3.42;;;1.58;;
29414;SDS011;20303;48.302;11.914;2023-04-01T18:43:32;2.08;;;1.50;;
29414;SDS011;20303;48.302;11.914;2023-04-01T18:53:59;4.13;;;1.48;;
29414;SDS011;20303;48.302;11.914;2023-04-01T19:04:16;2.95;;;1.52;;
29414;SDS011;20303;48.302;11.914;2023-04-01T19:14:35;2.13;;;1.40;;
29414;SDS011;20303;48.302;11.914;2023-04-01T19:25:12;2.22;;;1.40;;
29414;SDS011;20303;48.302;11.914;2023-04-01T19:35:37;3.35;;;1.38;;
29414;SDS011;20303;48.302;11.914;2023-04-01T19:45:51;2.42;;;1.48;;
29414;SDS011;20303;48.302;11.914;2023-04-01T19:56:05;2.15;;;1.40;;
29414;SDS011;20303;48.302;11.914;2023-04-01T20:27:27;1.77;;;1.30;;
29414;SDS011;20303;48.302;11.914;2023-04-01T20:48:24;1.70;;;1.23;;
29414;SDS011;20303;48.302;11.914;2023-04-01T20:58:54;1.70;;;1.10;;
29414;SDS011;20303;48.302;11.914;2023-04-01T21:19:29;1.90;;;1.20;;
29414;SDS011;20303;48.302;11.914;2023-04-01T21:40:23;2.08;;;1.20;;
29414;SDS011;20303;48.302;11.914;2023-04-01T22:01:00;2.17;;;1.00;;
29414;SDS011;20303;48.302;11.914;2023-04-01T22:32:08;2.33;;;1.08;;
29414;SDS011;20303;48.302;11.914;2023-04-01T22:42:29;1.40;;;1.10;;
29414;SDS011;20303;48.302;11.914;2023-04-01T22:52:35;1.17;;;1.00;;
29414;SDS011;20303;48.302;11.914;2023-04-01T23:02:42;1.38;;;1.10;;
29414;SDS011;20303;48.302;11.914;2023-04-01T23:12:46;1.10;;;1.00;;
29414;SDS011;20303;48.302;11.914;2023-04-01T23:43:22;2.90;;;1.10;;
29414;SDS011;20303;48.302;11.914;2023-04-01T23:53:28;1.17;;;1.00;;
